Time;durP1;ratioP1;P1;durP2;ratioP2;P2;SDS_P1;SDS_P2;PMS_P1;PMS_P2;Temp;Humidity;BMP_temperature;BMP_pressure;BME280_temperature;BME280_humidity;BME280_pressure;Samples;Min_cycle;Max_cycle;Signal;HPM_P1;HPM_P2
2023/02/28 00:00:09;;;;;;;4.07;1.50;;;;;;;;;;6200249;22;20042;-71
2023/02/28 00:02:36;;;;;;;2.30;1.17;;;;;;;;;;6233701;22;20024;-70
2023/02/28 00:05:03;;;;;;;2.88;1.38;;;;;;;;;;6231043;22;20434;-68
2023/02/28 00:07:30;;;;;;;2.78;1.38;;;;;;;;;;6244459;22;20426;-72
2023/02/28 00:09:56;;;;;;;4.43;1.50;;;;;;;;;;6197144;22;20027;-71
2023/02/28 00:12:23;;;;;;;4.55;1.60;;;;;;;;;;6235044;22;20016;-71
2023/02/28 00:14:51;;;;;;;3.97;1.40;;;;;;;;;;6209230;22;20031;-69
2023/02/28 00:17:20;;;;;;;4.00;1.83;;;;;;;;;;6237857;22;20050;-69
2023/02/28 00:19:48;;;;;;;3.47;1.60;;;;;;;;;;6205933;22;21443;-69
2023/02/28 00:22:16;;;;;;;4.88;1.77;;;;;;;;;;6231615;22;20119;-70
2023/02/28 00:24:43;;;;;;;3.58;1.40;;;;;;;;;;6231727;22;20023;-70
2023/02/28 00:27:09;;;;;;;3.85;1.65;;;;;;;;;;6217880;22;20124;-72
2023/02/28 00:29:36;;;;;;;7.57;1.60;;;;;;;;;;6220369;22;20070;-73
2023/02/28 00:32:05;;;;;;;2.88;1.20;;;;;;;;;;6204982;22;20189;-71
2023/02/28 00:34:37;;;;;;;3.97;1.70;;;;;;;;;;6232110;22;20023;-69
2023/02/28 00:37:03;;;;;;;4.72;1.80;;;;;;;;;;6204814;22;20020;-71
2023/02/28 00:39:30;;;;;;;3.47;1.35;;;;;;;;;;6220608;22;20019;-72
2023/02/28 00:41:56;;;;;;;2.97;1.30;;;;;;;;;;6231571;22;20055;-73
2023/02/28 00:44:23;;;;;;;3.10;1.17;;;;;;;;;;6232404;22;20042;-71
2023/02/28 00:46:51;;;;;;;2.38;1.40;;;;;;;;;;6226659;23;20035;-71
2023/02/28 00:49:21;;;;;;;2.50;1.30;;;;;;;;;;6222895;23;20063;-69
2023/02/28 00:51:48;;;;;;;3.00;1.40;;;;;;;;;;6218256;22;20022;-68
2023/02/28 00:54:14;;;;;;;3.38;1.50;;;;;;;;;;6212796;23;20020;-71
2023/02/28 00:56:41;;;;;;;4.45;1.50;;;;;;;;;;6211957;23;20079;-69
2023/02/28 00:59:08;;;;;;;4.40;1.80;;;;;;;;;;6196784;22;20138;-72
2023/02/28 01:01:34;;;;;;;3.78;1.70;;;;;;;;;;6217479;22;20039;-70
2023/02/28 01:04:01;;;;;;;3.90;1.70;;;;;;;;;;6229134;22;20055;-72
2023/02/28 01:06:29;;;;;;;2.78;1.48;;;;;;;;;;6227984;23;20020;-70
2023/02/28 01:08:55;;;;;;;3.47;1.40;;;;;;;;;;6221760;22;20111;-70
2023/02/28 01:11:22;;;;;;;3.47;1.60;;;;;;;;;;6227359;23;20016;-69
2023/02/28 01:13:49;;;;;;;3.28;1.30;;;;;;;;;;6219477;22;20081;-70
2023/02/28 01:16:15;;;;;;;3.45;1.48;;;;;;;;;;6227542;23;20162;-70
2023/02/28 01:18:42;;;;;;;3.17;1.45;;;;;;;;;;6223702;23;20032;-70
2023/02/28 01:21:10;;;;;;;3.53;1.23;;;;;;;;;;6226148;23;20084;-72
2023/02/28 01:23:38;;;;;;;2.95;1.42;;;;;;;;;;6201650;22;20016;-68
2023/02/28 01:26:05;;;;;;;3.45;1.40;;;;;;;;;;6213895;22;20531;-72
2023/02/28 01:28:32;;;;;;;4.40;1.52;;;;;;;;;;6210918;22;20023;-72
2023/02/28 01:30:58;;;;;;;3.25;1.50;;;;;;;;;;6226164;23;20024;-69
2023/02/28 01:33:25;;;;;;;3.63;1.60;;;;;;;;;;6222871;23;20047;-70
2023/02/28 01:35:58;;;;;;;2.83;1.45;;;;;;;;;;6219678;22;20024;-72
2023/02/28 01:38:24;;;;;;;3.88;1.50;;;;;;;;;;6189110;22;20103;-71
2023/02/28 01:40:53;;;;;;;3.05;1.58;;;;;;;;;;6211696;22;20024;-71
2023/02/28 01:43:24;;;;;;;2.75;1.40;;;;;;;;;;6210194;22;20062;-72
2023/02/28 01:45:51;;;;;;;3.88;1.70;;;;;;;;;;6211448;22;20222;-68
2023/02/28 01:48:19;;;;;;;3.20;1.58;;;;;;;;;;6210190;22;20024;-73
2023/02/28 01:50:46;;;;;;;2.97;1.40;;;;;;;;;;6227224;22;20074;-70
2023/02/28 01:53:14;;;;;;;4.05;1.77;;;;;;;;;;6191721;22;20104;-70
2023/02/28 01:55:42;;;;;;;4.93;1.83;;;;;;;;;;6217889;22;20153;-71
2023/02/28 01:58:10;;;;;;;3.73;1.40;;;;;;;;;;6226787;22;20024;-71
2023/02/28 02:00:38;;;;;;;3.65;1.60;;;;;;;;;;6217227;22;20087;-68
2023/02/28 02:03:07;;;;;;;2.67;1.50;;;;;;;;;;6227639;23;20031;-69
2023/02/28 02:05:34;;;;;;;;;;;;;;;;;;6207106;22;20086;-71
2023/02/28 02:08:03;;;;;;;3.03;1.45;;;;;;;;;;6224255;22;19919;-70
2023/02/28 02:10:31;;;;;;;5.35;1.80;;;;;;;;;;6211533;22;20034;-73
2023/02/28 02:12:58;;;;;;;;;;;;;;;;;;6227137;23;20130;-70
2023/02/28 02:15:27;;;;;;;5.10;1.60;;;;;;;;;;6223287;23;20093;-68
2023/02/28 02:17:56;;;;;;;6.63;1.67;;;;;;;;;;6226299;22;20051;-69
2023/02/28 02:20:38;;;;;;;3.33;1.50;;;;;;;;;;6215435;23;20016;-69
2023/02/28 02:23:23;;;;;;;4.13;1.67;;;;;;;;;;6228014;23;20040;-72
2023/02/28 02:25:52;;;;;;;6.32;1.65;;;;;;;;;;6220434;22;20054;-68
2023/02/28 02:28:31;;;;;;;3.75;1.50;;;;;;;;;;6197547;22;20066;-69
2023/02/28 02:31:12;;;;;;;4.90;1.83;;;;;;;;;;6223970;23;20042;-73
2023/02/28 02:33:57;;;;;;;3.03;1.48;;;;;;;;;;6201085;22;20032;-72
2023/02/28 02:36:26;;;;;;;6.90;1.75;;;;;;;;;;6209167;22;20036;-70
2023/02/28 02:38:54;;;;;;;6.45;2.00;;;;;;;;;;6209682;22;20047;-71
2023/02/28 02:41:27;;;;;;;4.13;1.65;;;;;;;;;;6227572;22;20024;-69
2023/02/28 02:43:56;;;;;;;3.28;1.50;;;;;;;;;;6214653;22;20178;-69
2023/02/28 02:46:26;;;;;;;5.82;1.85;;;;;;;;;;6224791;22;20032;-70
2023/02/28 02:48:55;;;;;;;4.15;1.63;;;;;;;;;;6211833;22;20039;-70
2023/02/28 02:51:23;;;;;;;3.80;1.80;;;;;;;;;;6247239;22;20023;-72
2023/02/28 02:53:52;;;;;;;4.50;1.83;;;;;;;;;;6223815;23;20075;-71
2023/02/28 02:56:20;;;;;;;6.30;1.80;;;;;;;;;;6227448;22;20051;-72
2023/02/28 02:58:48;;;;;;;5.68;1.83;;;;;;;;;;6226242;23;20254;-68
2023/02/28 03:01:16;;;;;;;3.47;1.70;;;;;;;;;;6225437;22;20024;-71
2023/02/28 03:03:44;;;;;;;3.05;1.52;;;;;;;;;;6158821;23;20115;-71
2023/02/28 03:06:11;;;;;;;5.28;2.00;;;;;;;;;;6177197;22;20078;-71
2023/02/28 03:08:38;;;;;;;4.13;1.73;;;;;;;;;;6225140;23;20045;-73
2023/02/28 03:11:09;;;;;;;4.53;2.15;;;;;;;;;;6225930;23;20024;-69
2023/02/28 03:13:52;;;;;;;3.85;1.80;;;;;;;;;;6198005;22;20029;-70
2023/02/28 03:16:43;;;;;;;3.03;1.50;;;;;;;;;;6202980;22;20035;-70
2023/02/28 03:19:18;;;;;;;4.47;1.90;;;;;;;;;;6146416;22;20444;-72
2023/02/28 03:21:46;;;;;;;4.55;1.80;;;;;;;;;;6218825;22;20020;-71
2023/02/28 03:24:17;;;;;;;4.40;1.90;;;;;;;;;;6208992;22;20027;-71
2023/02/28 03:26:49;;;;;;;3.97;1.83;;;;;;;;;;6199983;22;20062;-72
2023/02/28 03:29:19;;;;;;;5.43;1.90;;;;;;;;;;6225617;22;20028;-72
2023/02/28 03:31:48;;;;;;;5.53;2.00;;;;;;;;;;6228318;23;20163;-70
2023/02/28 03:34:18;;;;;;;4.93;1.75;;;;;;;;;;6213281;22;20059;-71
2023/02/28 03:36:47;;;;;;;4.75;1.90;;;;;;;;;;6215222;23;20027;-71
2023/02/28 03:39:15;;;;;;;3.40;1.42;;;;;;;;;;6225203;22;20027;-70
2023/02/28 03:41:44;;;;;;;4.45;1.70;;;;;;;;;;6229102;22;20463;-70
2023/02/28 03:44:15;;;;;;;3.40;1.73;;;;;;;;;;6214491;22;20027;-72
2023/02/28 03:46:45;;;;;;;6.85;1.65;;;;;;;;;;6228225;22;20042;-72
2023/02/28 03:49:17;;;;;;;4.50;1.60;;;;;;;;;;6226609;22;20036;-71
2023/02/28 03:51:44;;;;;;;2.65;1.55;;;;;;;;;;6229225;23;20076;-70
2023/02/28 03:54:12;;;;;;;3.47;1.80;;;;;;;;;;6188294;22;20078;-74
2023/02/28 03:56:39;;;;;;;;;;;;;;;;;;6187896;23;20124;-69
2023/02/28 04:07:09;;;;;;;3.63;1.70;;;;;;;;;;5078837;27;20506;-72
2023/02/28 04:09:36;;;;;;;5.22;1.80;;;;;;;;;;5047643;28;20052;-72
2023/02/28 04:12:03;;;;;;;3.90;1.80;;;;;;;;;;5034996;28;20076;-71
2023/02/28 04:14:29;;;;;;;3.67;1.67;;;;;;;;;;5050319;28;20136;-71
2023/02/28 04:16:56;;;;;;;5.30;1.90;;;;;;;;;;5054152;28;20095;-72
2023/02/28 04:19:23;;;;;;;3.00;1.40;;;;;;;;;;5040079;28;20098;-72
2023/02/28 04:21:51;;;;;;;3.67;1.60;;;;;;;;;;5032842;28;20049;-71
2023/02/28 04:24:20;;;;;;;3.70;1.40;;;;;;;;;;4973242;28;20071;-72
2023/02/28 04:26:47;;;;;;;3.38;1.40;;;;;;;;;;5034068;28;20067;-71
2023/02/28 04:29:15;;;;;;;4.68;1.83;;;;;;;;;;5032059;28;20330;-70
2023/02/28 04:31:42;;;;;;;4.18;1.80;;;;;;;;;;5065133;28;20055;-71
2023/02/28 04:34:08;;;;;;;3.17;1.35;;;;;;;;;;5061539;28;20052;-72
2023/02/28 04:36:35;;;;;;;4.18;1.75;;;;;;;;;;5048747;28;20048;-71
2023/02/28 04:39:02;;;;;;;2.63;1.30;;;;;;;;;;5034257;28;20044;-71
2023/02/28 04:41:30;;;;;;;6.18;1.50;;;;;;;;;;5026496;28;20052;-72
2023/02/28 04:43:59;;;;;;;3.78;1.50;;;;;;;;;;5022237;28;20048;-71
2023/02/28 04:46:25;;;;;;;5.32;1.58;;;;;;;;;;5027545;28;20084;-71
2023/02/28 04:48:53;;;;;;;2.92;1.35;;;;;;;;;;5032401;28;20057;-72
2023/02/28 04:51:21;;;;;;;4.78;1.70;;;;;;;;;;5025566;28;20050;-71
2023/02/28 04:53:50;;;;;;;2.78;1.38;;;;;;;;;;5042385;28;20060;-72
2023/02/28 04:56:17;;;;;;;4.07;1.48;;;;;;;;;;5049211;28;20053;-71
2023/02/28 04:58:45;;;;;;;3.80;1.50;;;;;;;;;;5042732;28;20067;-71
2023/02/28 05:01:18;;;;;;;3.53;1.35;;;;;;;;;;5057454;28;20044;-71
2023/02/28 05:03:45;;;;;;;3.08;1.17;;;;;;;;;;5049611;28;20048;-71
2023/02/28 05:06:12;;;;;;;2.45;1.17;;;;;;;;;;5024840;28;20531;-71
2023/02/28 05:08:39;;;;;;;2.45;1.40;;;;;;;;;;5028187;28;20143;-71
2023/02/28 05:11:08;;;;;;;2.25;1.00;;;;;;;;;;5046780;28;20044;-71
2023/02/28 05:13:35;;;;;;;2.30;1.20;;;;;;;;;;5009924;28;20053;-72
2023/02/28 05:16:03;;;;;;;5.38;1.33;;;;;;;;;;5014429;28;20162;-72
2023/02/28 05:18:30;;;;;;;2.42;1.30;;;;;;;;;;5012920;28;20111;-70
2023/02/28 05:20:57;;;;;;;2.25;1.30;;;;;;;;;;5016373;28;20053;-71
2023/02/28 05:23:24;;;;;;;2.63;1.30;;;;;;;;;;5000978;28;20084;-72
2023/02/28 05:25:52;;;;;;;4.32;1.48;;;;;;;;;;5005264;28;20132;-71
2023/02/28 05:28:19;;;;;;;;;;;;;;;;;;4988772;28;20245;-71
2023/02/28 05:30:45;;;;;;;2.15;1.10;;;;;;;;;;5015714;28;19991;-70
2023/02/28 05:33:14;;;;;;;1.88;1.10;;;;;;;;;;5009018;28;20045;-71
2023/02/28 05:35:42;;;;;;;4.15;1.20;;;;;;;;;;5016305;28;20124;-71
2023/02/28 05:38:09;;;;;;;3.63;1.58;;;;;;;;;;4995912;28;20329;-72
2023/02/28 05:40:35;;;;;;;2.72;1.30;;;;;;;;;;5000859;28;20053;-71
2023/02/28 05:43:02;;;;;;;2.38;1.27;;;;;;;;;;5015919;28;20057;-71
2023/02/28 05:45:28;;;;;;;3.60;1.70;;;;;;;;;;5037256;28;20149;-71
2023/02/28 05:47:55;;;;;;;2.40;1.10;;;;;;;;;;5000532;28;20072;-71
2023/02/28 05:50:24;;;;;;;2.40;1.42;;;;;;;;;;5012988;28;20061;-73
2023/02/28 05:52:51;;;;;;;3.28;1.25;;;;;;;;;;5003541;28;20049;-71
2023/02/28 05:55:18;;;;;;;2.75;1.33;;;;;;;;;;5014047;28;20123;-71
2023/02/28 05:57:48;;;;;;;2.20;0.98;;;;;;;;;;5015903;28;20053;-73
2023/02/28 06:00:17;;;;;;;3.40;1.25;;;;;;;;;;5028602;28;20069;-72
2023/02/28 06:02:44;;;;;;;5.47;1.15;;;;;;;;;;5003501;28;20045;-71
2023/02/28 06:05:14;;;;;;;3.03;1.50;;;;;;;;;;5025866;28;20057;-71
2023/02/28 06:07:42;;;;;;;2.90;1.45;;;;;;;;;;5014295;28;20060;-71
2023/02/28 06:10:09;;;;;;;4.47;1.50;;;;;;;;;;5007585;28;20053;-71
2023/02/28 06:12:36;;;;;;;2.60;1.40;;;;;;;;;;5021888;28;20346;-71
2023/02/28 06:15:07;;;;;;;2.85;1.17;;;;;;;;;;5014666;28;20085;-71
2023/02/28 06:17:36;;;;;;;2.83;1.48;;;;;;;;;;5023140;28;20044;-71
2023/02/28 06:20:02;;;;;;;2.83;1.30;;;;;;;;;;5016281;28;20052;-71
2023/02/28 06:22:29;;;;;;;3.28;1.40;;;;;;;;;;5028360;28;20080;-71
2023/02/28 06:24:58;;;;;;;2.92;1.35;;;;;;;;;;5015741;28;20064;-71
2023/02/28 06:27:25;;;;;;;3.03;1.27;;;;;;;;;;5006952;28;20115;-71
2023/02/28 06:29:54;;;;;;;2.60;1.10;;;;;;;;;;5014986;28;20085;-71
2023/02/28 06:32:21;;;;;;;2.20;1.15;;;;;;;;;;5017420;28;20116;-71
2023/02/28 06:34:47;;;;;;;3.60;1.38;;;;;;;;;;5006026;28;20334;-71
2023/02/28 06:37:14;;;;;;;2.10;1.10;;;;;;;;;;5021125;28;20057;-71
2023/02/28 06:39:41;;;;;;;2.78;1.25;;;;;;;;;;5023640;28;20063;-72
2023/02/28 06:42:08;;;;;;;3.38;1.20;;;;;;;;;;5008299;28;20049;-71
2023/02/28 06:44:35;;;;;;;1.87;1.03;;;;;;;;;;5010549;28;20053;-71
2023/02/28 06:47:03;;;;;;;4.07;1.20;;;;;;;;;;5028746;28;20336;-71
2023/02/28 06:49:30;;;;;;;3.72;1.48;;;;;;;;;;5017676;28;20136;-71
2023/02/28 06:51:56;;;;;;;2.33;1.15;;;;;;;;;;4997939;28;20074;-71
2023/02/28 06:54:23;;;;;;;2.25;1.10;;;;;;;;;;4959596;28;20053;-71
2023/02/28 06:56:51;;;;;;;2.78;1.27;;;;;;;;;;5011526;28;20064;-71
2023/02/28 06:59:19;;;;;;;2.33;1.23;;;;;;;;;;5007872;28;20049;-71
2023/02/28 07:01:46;;;;;;;4.32;1.40;;;;;;;;;;5004085;28;20205;-71
2023/02/28 07:04:13;;;;;;;3.10;1.27;;;;;;;;;;4989027;28;20053;-71
2023/02/28 07:06:39;;;;;;;1.98;0.95;;;;;;;;;;5010086;28;20122;-71
2023/02/28 07:09:06;;;;;;;2.72;1.38;;;;;;;;;;5016794;28;20328;-71
2023/02/28 07:11:37;;;;;;;3.53;1.38;;;;;;;;;;4986905;28;20068;-71
2023/02/28 07:14:12;;;;;;;2.35;1.33;;;;;;;;;;5002727;28;20527;-72
2023/02/28 07:16:47;;;;;;;3.63;1.30;;;;;;;;;;4996612;28;20057;-71
2023/02/28 07:19:13;;;;;;;2.75;1.30;;;;;;;;;;4998312;28;20057;-72
2023/02/28 07:21:40;;;;;;;4.90;1.40;;;;;;;;;;5020639;28;20060;-72
2023/02/28 07:24:07;;;;;;;2.20;1.08;;;;;;;;;;4996598;28;20081;-71
2023/02/28 07:26:35;;;;;;;1.90;1.15;;;;;;;;;;5027679;28;20053;-71
2023/02/28 07:29:02;;;;;;;3.78;1.15;;;;;;;;;;5032173;28;20049;-70
2023/02/28 07:31:29;;;;;;;3.08;1.50;;;;;;;;;;5006482;28;20144;-72
2023/02/28 07:34:05;;;;;;;2.15;1.00;;;;;;;;;;5013056;28;20061;-71
2023/02/28 07:36:32;;;;;;;3.08;1.33;;;;;;;;;;5015547;28;20076;-70
2023/02/28 07:39:05;;;;;;;2.25;1.10;;;;;;;;;;5027432;28;20077;-71
2023/02/28 07:41:33;;;;;;;2.65;0.90;;;;;;;;;;4997207;28;20068;-71
2023/02/28 07:44:03;;;;;;;4.68;1.30;;;;;;;;;;4997330;28;20147;-71
2023/02/28 07:46:34;;;;;;;2.67;1.20;;;;;;;;;;5013393;28;20049;-71
2023/02/28 07:49:04;;;;;;;2.85;1.08;;;;;;;;;;5002005;28;20214;-71
2023/02/28 07:51:31;;;;;;;2.60;1.20;;;;;;;;;;5024180;28;20139;-71
2023/02/28 07:53:59;;;;;;;2.90;1.27;;;;;;;;;;4995130;28;20056;-72
2023/02/28 07:56:26;;;;;;;2.95;1.30;;;;;;;;;;5024827;28;20144;-71
2023/02/28 07:58:55;;;;;;;4.03;1.30;;;;;;;;;;5020749;28;20045;-71
2023/02/28 08:01:22;;;;;;;;;;;;;;;;;;5005556;28;20072;-71
2023/02/28 08:03:51;;;;;;;3.47;1.17;;;;;;;;;;4981748;28;19929;-71
2023/02/28 08:06:20;;;;;;;3.38;1.63;;;;;;;;;;4997302;28;20236;-71
2023/02/28 08:08:48;;;;;;;2.60;1.35;;;;;;;;;;5013714;28;20073;-71
2023/02/28 08:11:15;;;;;;;3.05;1.42;;;;;;;;;;5008356;28;20133;-71
2023/02/28 08:13:43;;;;;;;3.38;1.52;;;;;;;;;;4980770;28;20086;-72
2023/02/28 08:16:10;;;;;;;;;;;;;;;;;;4992464;28;20061;-71
2023/02/28 08:18:36;;;;;;;3.72;1.25;;;;;;;;;;5001840;28;19960;-71
2023/02/28 08:21:07;;;;;;;3.10;1.33;;;;;;;;;;4997322;28;20053;-70
2023/02/28 08:23:35;;;;;;;2.05;1.08;;;;;;;;;;4993737;28;20124;-70
2023/02/28 08:26:02;;;;;;;3.33;1.15;;;;;;;;;;4994519;28;20057;-71
2023/02/28 08:28:28;;;;;;;2.63;1.20;;;;;;;;;;5015921;28;20057;-71
2023/02/28 08:30:55;;;;;;;1.70;1.13;;;;;;;;;;5024885;28;20072;-70
2023/02/28 08:33:22;;;;;;;1.52;0.90;;;;;;;;;;5019950;28;20072;-71
2023/02/28 08:35:49;;;;;;;2.88;1.27;;;;;;;;;;4958837;28;20065;-70
2023/02/28 08:38:16;;;;;;;2.53;1.15;;;;;;;;;;4984525;28;20098;-71
2023/02/28 08:40:45;;;;;;;1.67;1.10;;;;;;;;;;5000627;28;20060;-70
2023/02/28 08:43:13;;;;;;;3.05;1.20;;;;;;;;;;4988740;28;20053;-71
2023/02/28 08:45:40;;;;;;;2.30;1.13;;;;;;;;;;4990358;28;20065;-70
2023/02/28 08:48:06;;;;;;;2.45;1.20;;;;;;;;;;4976877;28;20091;-71
2023/02/28 08:50:33;;;;;;;2.42;1.20;;;;;;;;;;4978409;28;20057;-71
2023/02/28 08:53:00;;;;;;;2.15;1.30;;;;;;;;;;5007302;28;20055;-70
2023/02/28 08:55:26;;;;;;;3.60;1.30;;;;;;;;;;4983670;28;20065;-70
2023/02/28 08:57:58;;;;;;;2.17;1.23;;;;;;;;;;4992819;28;20049;-70
2023/02/28 09:00:25;;;;;;;2.30;1.10;;;;;;;;;;4997965;28;20056;-71
2023/02/28 09:02:57;;;;;;;2.75;1.35;;;;;;;;;;5013760;28;20065;-71
2023/02/28 09:05:23;;;;;;;2.58;1.30;;;;;;;;;;5000889;28;20075;-71
2023/02/28 09:07:51;;;;;;;3.70;1.30;;;;;;;;;;5017601;28;20056;-71
2023/02/28 09:10:18;;;;;;;2.35;1.30;;;;;;;;;;4962007;28;20582;-71
2023/02/28 09:12:46;;;;;;;1.92;1.10;;;;;;;;;;4991660;28;20054;-72
2023/02/28 09:15:13;;;;;;;;;;;;;;;;;;4990433;28;20074;-71
2023/02/28 09:17:41;;;;;;;2.13;1.17;;;;;;;;;;5012268;28;19987;-71
2023/02/28 09:20:09;;;;;;;2.95;1.33;;;;;;;;;;4997497;28;20169;-70
2023/02/28 09:22:36;;;;;;;4.32;1.60;;;;;;;;;;5015762;28;20069;-71
2023/02/28 09:25:07;;;;;;;2.47;1.30;;;;;;;;;;4999458;28;20053;-71
2023/02/28 09:27:34;;;;;;;2.13;1.20;;;;;;;;;;4999129;28;20140;-70
2023/02/28 09:30:02;;;;;;;3.75;1.30;;;;;;;;;;4988204;28;20062;-71
2023/02/28 09:32:31;;;;;;;1.90;1.05;;;;;;;;;;5014884;28;20053;-70
2023/02/28 09:34:59;;;;;;;2.97;1.40;;;;;;;;;;4992149;28;20053;-71
2023/02/28 09:37:29;;;;;;;2.47;1.20;;;;;;;;;;5008338;28;20140;-71
2023/02/28 09:39:56;;;;;;;4.68;1.20;;;;;;;;;;4999023;28;20145;-72
2023/02/28 09:42:32;;;;;;;2.90;1.30;;;;;;;;;;4992927;28;20145;-70
2023/02/28 09:44:59;;;;;;;4.38;1.63;;;;;;;;;;4985147;28;20056;-71
2023/02/28 09:47:30;;;;;;;2.90;1.40;;;;;;;;;;4999123;28;20090;-71
2023/02/28 09:49:58;;;;;;;4.03;1.30;;;;;;;;;;4984716;28;20068;-71
2023/02/28 09:52:29;;;;;;;3.90;1.50;;;;;;;;;;4995941;28;20136;-71
2023/02/28 09:54:56;;;;;;;4.30;1.50;;;;;;;;;;4989130;28;20056;-71
2023/02/28 09:57:29;;;;;;;4.47;1.58;;;;;;;;;;5001000;28;20060;-71
2023/02/28 10:00:01;;;;;;;2.40;1.17;;;;;;;;;;5000687;28;20124;-71
2023/02/28 10:02:42;;;;;;;3.45;1.45;;;;;;;;;;5013099;28;20072;-71
2023/02/28 10:05:12;;;;;;;4.38;1.50;;;;;;;;;;5000764;28;20124;-71
2023/02/28 10:07:45;;;;;;;2.90;1.50;;;;;;;;;;5004377;28;20042;-71
2023/02/28 10:10:19;;;;;;;2.22;1.40;;;;;;;;;;5005593;28;20058;-71
2023/02/28 10:12:54;;;;;;;2.33;1.13;;;;;;;;;;5010972;28;20053;-71
2023/02/28 10:15:22;;;;;;;2.67;1.27;;;;;;;;;;4981298;28;20050;-72
2023/02/28 10:17:50;;;;;;;2.33;1.20;;;;;;;;;;5009982;28;20042;-71
2023/02/28 10:20:20;;;;;;;2.45;1.25;;;;;;;;;;4933588;28;20152;-72
2023/02/28 10:22:53;;;;;;;2.78;1.48;;;;;;;;;;5006576;28;20063;-71
2023/02/28 10:25:20;;;;;;;2.88;1.27;;;;;;;;;;4979084;28;20153;-71
2023/02/28 10:27:50;;;;;;;3.40;1.20;;;;;;;;;;4989263;28;20122;-71
2023/02/28 10:30:17;;;;;;;2.47;1.20;;;;;;;;;;4982131;28;20046;-71
2023/02/28 10:32:47;;;;;;;2.17;1.20;;;;;;;;;;5007683;28;20054;-71
2023/02/28 10:35:18;;;;;;;3.13;1.35;;;;;;;;;;4983054;28;20067;-71
2023/02/28 10:37:45;;;;;;;3.88;1.60;;;;;;;;;;4999943;28;20046;-71
2023/02/28 10:40:26;;;;;;;2.78;1.40;;;;;;;;;;4986396;28;20054;-71
2023/02/28 10:43:01;;;;;;;2.42;1.30;;;;;;;;;;5023128;28;20053;-71
2023/02/28 10:45:33;;;;;;;2.38;1.30;;;;;;;;;;4975256;28;20053;-71
2023/02/28 10:48:01;;;;;;;2.78;1.30;;;;;;;;;;4972366;28;20156;-71
2023/02/28 10:50:29;;;;;;;2.33;1.17;;;;;;;;;;4983118;28;20061;-71
2023/02/28 10:53:05;;;;;;;3.50;1.40;;;;;;;;;;4994632;28;20050;-72
2023/02/28 10:55:33;;;;;;;2.92;1.50;;;;;;;;;;4935870;28;20049;-72
2023/02/28 10:58:00;;;;;;;4.82;1.50;;;;;;;;;;5012741;28;20057;-71
2023/02/28 11:00:33;;;;;;;2.55;1.38;;;;;;;;;;4999796;28;20171;-71
2023/02/28 11:03:00;;;;;;;6.05;1.40;;;;;;;;;;5028845;28;20122;-71
2023/02/28 11:05:28;;;;;;;3.58;1.45;;;;;;;;;;4994049;28;20053;-71
2023/02/28 11:07:58;;;;;;;2.67;1.30;;;;;;;;;;5018886;28;20130;-72
2023/02/28 11:10:29;;;;;;;2.65;1.30;;;;;;;;;;5010738;28;20083;-72
2023/02/28 11:13:00;;;;;;;2.40;1.30;;;;;;;;;;4975694;28;20064;-71
2023/02/28 11:15:30;;;;;;;3.40;1.52;;;;;;;;;;4910001;28;20076;-72
2023/02/28 11:17:59;;;;;;;3.35;1.48;;;;;;;;;;5009473;28;20057;-72
2023/02/28 11:20:27;;;;;;;1.65;1.20;;;;;;;;;;5049069;28;20164;-72
2023/02/28 11:22:57;;;;;;;2.92;1.23;;;;;;;;;;5056110;28;20053;-72
2023/02/28 11:25:24;;;;;;;2.33;1.23;;;;;;;;;;5013333;28;20052;-71
2023/02/28 11:27:53;;;;;;;2.80;1.30;;;;;;;;;;5048574;28;20052;-72
2023/02/28 11:30:29;;;;;;;2.85;1.10;;;;;;;;;;5002825;28;20128;-72
2023/02/28 11:32:55;;;;;;;4.43;1.50;;;;;;;;;;5046885;28;20071;-72
2023/02/28 11:35:26;;;;;;;3.92;1.67;;;;;;;;;;5003711;28;20050;-71
2023/02/28 11:37:54;;;;;;;2.63;1.25;;;;;;;;;;5011873;28;20114;-72
2023/02/28 11:40:29;;;;;;;4.30;1.52;;;;;;;;;;4990446;28;20049;-72
2023/02/28 11:43:01;;;;;;;2.85;1.58;;;;;;;;;;5034006;28;20233;-72
2023/02/28 11:45:40;;;;;;;3.50;1.58;;;;;;;;;;5012974;28;20056;-71
2023/02/28 11:48:13;;;;;;;3.33;1.50;;;;;;;;;;5002449;28;20053;-72
2023/02/28 11:50:43;;;;;;;3.28;1.67;;;;;;;;;;4981189;28;20058;-72
2023/02/28 11:53:15;;;;;;;3.47;1.45;;;;;;;;;;4962444;28;20140;-71
2023/02/28 11:55:44;;;;;;;3.97;1.63;;;;;;;;;;4972449;28;20135;-72
2023/02/28 11:58:23;;;;;;;3.03;1.52;;;;;;;;;;4965852;28;20089;-72
2023/02/28 12:00:58;;;;;;;3.03;1.50;;;;;;;;;;5050746;28;20043;-72
2023/02/28 12:03:29;;;;;;;3.05;1.38;;;;;;;;;;5038692;28;20186;-71
2023/02/28 12:06:02;;;;;;;2.78;1.42;;;;;;;;;;5003747;28;20132;-71
2023/02/28 12:08:38;;;;;;;2.72;1.48;;;;;;;;;;5034766;28;20049;-72
2023/02/28 12:11:10;;;;;;;3.45;1.58;;;;;;;;;;5017635;28;20118;-71
2023/02/28 12:13:42;;;;;;;5.15;1.70;;;;;;;;;;5053516;28;20076;-72
2023/02/28 12:16:27;;;;;;;3.17;1.60;;;;;;;;;;4991975;28;20056;-71
2023/02/28 12:19:09;;;;;;;3.03;1.52;;;;;;;;;;5031796;28;20049;-71
2023/02/28 12:21:43;;;;;;;3.20;1.58;;;;;;;;;;4991051;28;20056;-71
2023/02/28 12:24:21;;;;;;;4.20;1.50;;;;;;;;;;5017272;28;20078;-71
2023/02/28 12:26:49;;;;;;;4.85;1.77;;;;;;;;;;5015727;28;20063;-71
2023/02/28 12:29:21;;;;;;;3.13;1.70;;;;;;;;;;5029878;28;20053;-71
2023/02/28 12:32:04;;;;;;;3.42;1.55;;;;;;;;;;5005449;28;20053;-72
2023/02/28 12:34:33;;;;;;;4.35;1.50;;;;;;;;;;4993173;28;20106;-72
2023/02/28 12:37:02;;;;;;;3.17;1.52;;;;;;;;;;5021021;28;20045;-72
2023/02/28 12:39:32;;;;;;;3.97;1.73;;;;;;;;;;5043235;28;20114;-71
2023/02/28 12:42:02;;;;;;;3.83;1.70;;;;;;;;;;5006441;28;20049;-72
2023/02/28 12:44:33;;;;;;;2.65;1.40;;;;;;;;;;5025942;28;20093;-72
2023/02/28 12:47:05;;;;;;;3.85;1.88;;;;;;;;;;4985087;28;20057;-72
2023/02/28 12:49:34;;;;;;;5.40;1.70;;;;;;;;;;4987547;28;20125;-72
2023/02/28 12:52:02;;;;;;;;;;;;;;;;;;5006466;28;20131;-72
2023/02/28 12:54:32;;;;;;;3.20;1.35;;;;;;;;;;5000857;28;19928;-71
2023/02/28 12:57:08;;;;;;;2.97;1.42;;;;;;;;;;5036845;28;20206;-72
2023/02/28 12:59:38;;;;;;;3.08;1.55;;;;;;;;;;5018821;28;20148;-72
2023/02/28 13:02:23;;;;;;;3.72;1.60;;;;;;;;;;5009555;28;20425;-71
2023/02/28 13:05:10;;;;;;;2.92;1.83;;;;;;;;;;5011260;28;20073;-71
2023/02/28 13:07:52;;;;;;;2.38;1.45;;;;;;;;;;5030532;28;20110;-71
2023/02/28 13:10:19;;;;;;;2.53;1.60;;;;;;;;;;5015436;28;20047;-71
2023/02/28 13:12:50;;;;;;;4.20;1.80;;;;;;;;;;5044402;28;20072;-71
2023/02/28 13:15:21;;;;;;;3.00;1.70;;;;;;;;;;5021879;28;20756;-71
2023/02/28 13:17:50;;;;;;;3.20;1.80;;;;;;;;;;5018413;28;20168;-72
2023/02/28 13:20:20;;;;;;;2.63;1.50;;;;;;;;;;4982771;28;20115;-72
2023/02/28 13:22:48;;;;;;;3.60;1.73;;;;;;;;;;4941376;28;20051;-71
2023/02/28 13:25:36;;;;;;;2.03;1.45;;;;;;;;;;4995766;28;20155;-72
2023/02/28 13:28:04;;;;;;;3.78;1.83;;;;;;;;;;5011077;28;20044;-72
2023/02/28 13:30:45;;;;;;;4.00;1.98;;;;;;;;;;5035550;28;20155;-72
2023/02/28 13:33:24;;;;;;;4.28;1.83;;;;;;;;;;5006556;28;20101;-71
2023/02/28 13:36:03;;;;;;;3.30;1.75;;;;;;;;;;5011397;28;20052;-72
2023/02/28 13:38:40;;;;;;;5.50;1.77;;;;;;;;;;5022212;28;20059;-71
2023/02/28 13:41:25;;;;;;;4.45;1.88;;;;;;;;;;5011190;28;20053;-71
2023/02/28 13:44:02;;;;;;;3.70;1.58;;;;;;;;;;5001699;28;20080;-75
2023/02/28 13:46:29;;;;;;;3.95;1.90;;;;;;;;;;4979521;28;20135;-72
2023/02/28 13:48:55;;;;;;;4.55;1.88;;;;;;;;;;5039856;28;20069;-72
2023/02/28 13:51:39;;;;;;;5.20;1.58;;;;;;;;;;5006719;28;20084;-72
2023/02/28 13:54:13;;;;;;;2.78;1.58;;;;;;;;;;5008659;28;20059;-71
2023/02/28 13:59:16;;;;;;;3.70;1.67;;;;;;;;;;4890291;28;20050;-71
2023/02/28 14:01:53;;;;;;;2.17;1.42;;;;;;;;;;5031700;28;20292;-71
2023/02/28 14:04:37;;;;;;;3.55;1.83;;;;;;;;;;5025417;28;20056;-72
2023/02/28 14:07:09;;;;;;;3.55;2.03;;;;;;;;;;5007184;28;20093;-71
2023/02/28 14:09:47;;;;;;;2.92;1.65;;;;;;;;;;4993360;28;20049;-72
2023/02/28 14:12:33;;;;;;;2.35;1.40;;;;;;;;;;4986362;28;20093;-72
2023/02/28 14:20:21;;;;;;;3.67;1.60;;;;;;;;;;4909374;28;21304;-71
2023/02/28 14:22:56;;;;;;;3.72;1.48;;;;;;;;;;4947676;28;20233;-72
2023/02/28 14:25:31;;;;;;;3.58;1.80;;;;;;;;;;4997204;28;20056;-72
2023/02/28 14:28:06;;;;;;;3.42;1.70;;;;;;;;;;4993758;28;20072;-72
2023/02/28 14:30:51;;;;;;;3.17;1.67;;;;;;;;;;4993467;28;20066;-72
2023/02/28 14:33:26;;;;;;;3.00;1.55;;;;;;;;;;4983997;28;20060;-71
2023/02/28 14:36:15;;;;;;;4.22;1.88;;;;;;;;;;4999620;28;20061;-72
2023/02/28 14:38:48;;;;;;;4.18;2.00;;;;;;;;;;5027745;28;20057;-72
2023/02/28 14:41:20;;;;;;;2.60;1.40;;;;;;;;;;5021569;28;20049;-71
2023/02/28 14:43:52;;;;;;;3.70;1.60;;;;;;;;;;5014537;28;20132;-73
2023/02/28 14:46:19;;;;;;;5.75;1.77;;;;;;;;;;4873210;28;20157;-71
2023/02/28 14:48:46;;;;;;;2.83;1.42;;;;;;;;;;4971692;28;20046;-72
2023/02/28 14:51:19;;;;;;;3.28;1.88;;;;;;;;;;4996806;28;20050;-71
2023/02/28 14:53:51;;;;;;;3.60;1.52;;;;;;;;;;5022038;28;20046;-71
2023/02/28 14:56:21;;;;;;;3.70;1.80;;;;;;;;;;4998464;28;22173;-72
2023/02/28 14:58:52;;;;;;;5.35;1.48;;;;;;;;;;5010909;28;20122;-72
2023/02/28 15:01:20;;;;;;;3.85;1.73;;;;;;;;;;5010550;28;20050;-71
2023/02/28 15:04:01;;;;;;;3.35;1.50;;;;;;;;;;5013785;28;20123;-72
2023/02/28 15:06:42;;;;;;;;;;;;;;;;;;;;;
2023/02/28 15:09:15;;;;;;;3.20;1.42;;;;;;;;;;4999688;28;20049;-72
2023/02/28 15:11:50;;;;;;;3.90;1.50;;;;;;;;;;5027550;28;20067;-71
2023/02/28 15:14:20;;;;;;;3.28;1.58;;;;;;;;;;5011897;28;20069;-71
2023/02/28 15:16:49;;;;;;;4.90;1.48;;;;;;;;;;5026937;28;20068;-71